Latest Coastal Weather Observations for Gladstone

IDQ60701

Issued at 1:41 pm EST Sunday 22 January 2017 (issued every 10 minutes, with the page automatically refreshed every 10 minutes)

About coastal observations | Map of coastal stations | Coastal observations for QLD | Marine services | Other Formats
Station Details ID: 039123 Name: GLADSTONE RADAR Lat: -23.86 Lon: 151.26 Height: 74.5 m
Data from the previous 72 hours. | See also: Recent months at Gladstone
Date/Time
EST
Temp
°C
Wind Pressure Rain since
9am
mm
Weather Cloud Vis
km
Sea
Height
m
Swell
Dir  Spd
kts
Gust
kts
hPa Trend Height
m
Period
s
Dir
22/01:30pm 25.5 ESE 15 24 1012.9 - - - - - - - - -
22/01:00pm 25.9 ESE 17 24 1012.9 - - - - - - - - -
22/12:31pm 24.7 ESE 15 25 1013.4 - - - - - - - - -
22/12:30pm 24.5 ESE 16 25 1013.4 - - - - - - - - -
22/12:00pm 26.0 ESE 16 22 1013.6 - - - - - - - - -
22/11:30am 25.9 ESE 15 23 1013.9 - - - - - - - - -
22/11:00am 25.9 ESE 16 25 1013.9 - - - - - - - - -
22/10:38am 26.1 ESE 15 25 1014.0 - - - - - - - - -
22/10:30am 26.1 ESE 18 27 1013.9 - - - - - - - - -
22/10:00am 26.3 ESE 15 23 1013.8 - - - - - - - - -
22/09:30am 26.0 ESE 15 23 1013.7 - - - - - - - - -
22/09:00am 25.6 ESE 11 18 1013.6 - - - - - - - - -
22/08:30am 25.3 ESE 12 21 1013.4 - - - - - - - - -
22/08:00am 25.2 ESE 13 21 1012.9 - - - - - - - - -
22/07:30am 25.0 ESE 11 21 1012.6 - - - - - - - - -
22/07:00am 24.8 SE 11 17 1012.4 - - - - - - - - -
22/06:30am 24.5 ESE 11 19 1012.1 - - - - - - - - -
22/06:00am 24.2 ESE 13 21 1011.7 - - - - - - - - -
22/05:30am 24.3 ESE 13 19 1011.2 - - - - - - - - -
22/05:00am 24.7 ESE 17 22 1010.4 - - - - - - - - -
22/04:30am 24.6 ESE 14 23 1010.3 - - - - - - - - -
22/04:15am 25.2 ESE 13 25 1010.2 - - - - - - - - -
22/04:00am 26.2 SE 7 13 1010.0 - - - - - - - - -
22/03:30am 27.3 ENE 8 13 1009.8 - - - - - - - - -
22/03:00am 27.1 ENE 7 10 1009.5 - - - - - - - - -
22/02:30am 27.2 ENE 6 9 1009.5 - - - - - - - - -
22/02:00am 27.2 ENE 7 10 1009.5 - - - - - - - - -
22/01:30am 27.0 NE 6 8 1009.6 - - - - - - - - -
22/01:00am 27.3 N 5 7 1009.5 - - - - - - - - -
22/12:30am 27.4 N 1 4 1009.5 - - - - - - - - -
22/12:00am 27.4 N 3 6 1009.2 - - - - - - - - -
 
Date/Time
EST
Temp
°C
Wind Pressure Rain since
9am
mm
Weather Cloud Vis
km
Sea
Height
m
Swell
Dir  Spd
kts
Gust
kts
hPa Trend Height
m
Period
s
Dir
21/11:30pm 27.5 N 4 7 1009.4 - - - - - - - - -
21/11:00pm 27.5 N 4 8 1009.4 - - - - - - - - -
21/10:30pm 27.5 N 3 5 1009.6 - - - - - - - - -
21/10:00pm 27.6 N 4 7 1009.4 - - - - - - - - -
21/09:30pm 27.7 N 5 8 1009.2 - - - - - - - - -
21/09:00pm 27.8 NNW 5 8 1008.8 - - - - - - - - -
21/08:30pm 27.9 N 4 7 1008.6 - - - - - - - - -
21/08:00pm 28.0 N 4 8 1008.4 - - - - - - - - -
21/07:30pm 28.0 N 5 9 1007.9 - - - - - - - - -
21/07:00pm 28.1 N 7 11 1007.5 - - - - - - - - -
21/06:30pm 28.6 NNE 6 11 1007.0 - - - - - - - - -
21/06:00pm 29.1 N 7 13 1006.4 - - - - - - - - -
21/05:30pm 29.9 N 6 10 1005.8 - - - - - - - - -
21/05:00pm 30.6 NNE 7 11 1005.5 - - - - - - - - -
21/04:30pm 30.5 NNE 8 12 1005.4 - - - - - - - - -
21/04:00pm 30.6 NNE 9 15 1005.7 - - - - - - - - -
21/03:30pm 30.4 NE 7 14 1005.8 - - - - - - - - -
21/03:00pm 30.2 NNE 10 16 1006.3 - - - - - - - - -
21/02:30pm 30.3 NE 9 14 1006.5 - - - - - - - - -
21/02:00pm 31.1 NE 9 14 1006.7 - - - - - - - - -
21/01:30pm 32.9 NE 8 13 1006.9 - - - - - - - - -
21/01:00pm 34.6 NE 8 13 1007.1 - - - - - - - - -
21/12:30pm 34.0 NE 7 12 1007.5 - - - - - - - - -
21/12:00pm 35.4 NE 6 10 1007.8 - - - - - - - - -
21/11:30am 33.2 NW 5 10 1008.1 - - - - - - - - -
21/11:00am 32.4 WNW 6 10 1008.5 - - - - - - - - -
21/10:30am 32.1 NW 4 9 1008.9 - - - - - - - - -
21/10:00am 30.9 W 3 6 1009.1 - - - - - - - - -
21/09:30am 30.1 NW 5 10 1009.0 - - - - - - - - -
21/09:00am 29.9 W 3 6 1009.0 - - - - - - - - -
21/08:30am 29.2 WSW 4 6 1009.2 - - - - - - - - -
21/08:00am 27.7 WSW 3 7 1009.0 - - - - - - - - -
21/07:30am 25.9 WSW 1 5 1008.9 - - - - - - - - -
21/07:00am 25.2 WSW 4 6 1009.1 - - - - - - - - -
21/06:30am 24.3 W 1 5 1008.8 - - - - - - - - -
21/06:00am 24.0 W 3 4 1008.4 - - - - - - - - -
21/05:30am 24.2 WNW 4 7 1008.1 - - - - - - - - -
21/05:00am 24.5 WNW 4 7 1007.4 - - - - - - - - -
21/04:30am 24.5 W 5 8 1006.9 - - - - - - - - -
21/04:00am 24.6 W 4 6 1007.0 - - - - - - - - -
21/03:30am 25.2 WNW 4 7 1006.8 - - - - - - - - -
21/03:00am 25.7 NW 5 10 1006.7 - - - - - - - - -
21/02:30am 25.9 NW 7 11 1006.8 - - - - - - - - -
21/02:00am 25.9 NW 7 13 1007.0 - - - - - - - - -
21/01:30am 26.0 NW 8 14 1007.2 - - - - - - - - -
21/01:00am 26.0 NW 7 10 1007.6 - - - - - - - - -
21/12:30am 26.2 NNW 7 13 1007.6 - - - - - - - - -
21/12:00am 26.4 NNW 8 13 1007.9 - - - - - - - - -
 
Date/Time
EST
Temp
°C
Wind Pressure Rain since
9am
mm
Weather Cloud Vis
km
Sea
Height
m
Swell
Dir  Spd
kts
Gust
kts
hPa Trend Height
m
Period
s
Dir
20/11:30pm 26.3 NNW 7 13 1008.2 - - - - - - - - -
20/11:00pm 26.5 NW 8 12 1008.3 - - - - - - - - -
20/10:30pm 26.7 NNW 9 14 1008.4 - - - - - - - - -
20/10:00pm 26.7 NW 7 14 1008.5 - - - - - - - - -
20/09:30pm 26.6 NW 8 14 1008.2 - - - - - - - - -
20/09:00pm 26.7 NNW 7 14 1008.1 - - - - - - - - -
20/08:30pm 26.8 NNW 7 11 1007.8 - - - - - - - - -
20/08:00pm 27.1 NNW 6 12 1007.8 - - - - - - - - -
20/07:30pm 27.4 NNW 8 12 1007.4 - - - - - - - - -
20/07:00pm 27.6 N 7 11 1006.8 - - - - - - - - -
20/06:30pm 28.2 N 7 13 1006.3 - - - - - - - - -
20/06:00pm 29.0 N 7 14 1005.9 - - - - - - - - -
20/05:30pm 29.9 N 7 15 1005.4 - - - - - - - - -
20/05:00pm 31.0 N 8 15 1005.1 - - - - - - - - -
20/04:30pm 31.4 N 10 16 1005.0 - - - - - - - - -
20/04:00pm 32.1 NNE 11 18 1005.5 - - - - - - - - -
20/03:30pm 32.4 NNE 10 15 1005.9 - - - - - - - - -
20/03:00pm 32.7 NNE 8 18 1006.3 - - - - - - - - -
20/02:30pm 32.7 NNE 10 17 1006.6 - - - - - - - - -
20/02:00pm 32.8 NNE 12 18 1006.9 - - - - - - - - -
20/01:30pm 33.3 NNE 11 17 1007.4 - - - - - - - - -
20/01:00pm 33.8 NNE 9 15 1007.7 - - - - - - - - -
20/12:30pm 34.8 NE 9 13 1008.2 - - - - - - - - -
20/12:00pm 34.2 NE 9 15 1008.5 - - - - - - - - -
20/11:30am 33.8 NE 10 14 1008.9 - - - - - - - - -
20/11:00am 34.6 NE 8 16 1009.1 - - - - - - - - -
20/10:30am 34.0 NNE 5 9 1009.5 - - - - - - - - -
20/10:00am 31.9 NE 3 7 1009.8 - - - - - - - - -
20/09:30am 30.2 NW 4 9 1010.1 - - - - - - - - -
20/09:00am 30.7 N 3 7 1010.1 - - - - - - - - -
20/08:30am 29.1 NW 3 8 1010.1 - - - - - - - - -
20/08:00am 28.3 NNW 6 10 1010.1 - - - - - - - - -
20/07:30am 27.7 NW 4 8 1010.1 - - - - - - - - -
20/07:00am 27.4 NNW 4 9 1009.7 - - - - - - - - -
20/06:30am 26.8 NNW 5 9 1009.5 - - - - - - - - -
20/06:00am 26.4 NNW 5 7 1009.3 - - - - - - - - -
20/05:30am 26.1 N 7 10 1008.8 - - - - - - - - -
20/05:00am 26.1 NNE 6 10 1008.6 - - - - - - - - -
20/04:30am 26.3 N 5 11 1008.2 - - - - - - - - -
20/04:00am 26.6 N 4 7 1008.3 - - - - - - - - -
20/03:30am 26.7 NNE 3 5 1008.3 - - - - - - - - -
20/03:00am 26.7 NNE 4 7 1008.3 - - - - - - - - -
20/02:30am 26.6 NNE 5 7 1008.4 - - - - - - - - -
20/02:00am 26.7 NE 5 7 1008.7 - - - - - - - - -
20/01:30am 26.6 NNE 7 11 1008.7 - - - - - - - - -
20/01:00am 26.7 NE 7 9 1008.8 - - - - - - - - -
20/12:30am 26.4 ENE 7 10 1009.0 - - - - - - - - -
20/12:00am 26.5 ENE 7 10 1009.2 - - - - - - - - -
 
Date/Time
EST
Temp
°C
Wind Pressure Rain since
9am
mm
Weather Cloud Vis
km
Sea
Height
m
Swell
Dir  Spd
kts
Gust
kts
hPa Trend Height
m
Period
s
Dir
19/11:30pm 26.7 NE 6 10 1009.3 - - - - - - - - -
19/11:00pm 26.6 NE 7 11 1009.4 - - - - - - - - -
19/10:30pm 27.0 NE 7 10 1009.7 - - - - - - - - -
19/10:00pm 26.8 ENE 9 13 1009.8 - - - - - - - - -
19/09:30pm 26.9 ENE 10 14 1009.6 - - - - - - - - -
19/09:00pm 27.2 ENE 11 14 1009.3 - - - - - - - - -
19/08:30pm 27.3 ENE 10 14 1009.0 - - - - - - - - -
19/08:00pm 27.4 ENE 9 13 1009.0 - - - - - - - - -
19/07:30pm 27.5 NE 8 12 1008.5 - - - - - - - - -
19/07:00pm 27.6 NNE 7 11 1007.9 - - - - - - - - -
19/06:30pm 28.0 NE 7 12 1007.3 - - - - - - - - -
19/06:00pm 28.6 NE 8 13 1006.8 - - - - - - - - -
19/05:30pm 29.1 NNE 9 14 1006.1 - - - - - - - - -
19/05:00pm 29.9 NNE 11 16 1005.9 - - - - - - - - -
19/04:30pm 30.8 NNE 10 16 1005.6 - - - - - - - - -
19/04:00pm 32.4 NE 7 13 1005.7 - 0.0 - - - - - - -
19/03:30pm 32.0 NNE 9 14 1006.2 - 0.0 - - - - - - -
19/03:00pm 32.9 NE 9 15 1006.6 - 0.0 - - - - - - -
19/02:30pm 34.2 NE 8 13 1007.0 - 0.0 - - - - - - -
19/02:00pm 33.0 NNE 9 14 1007.4 - 0.0 - - - - - - -

Other Formats:

Comma delimited format used in spreadsheet applications
http://www.bom.gov.au/fwo/IDQ60701/IDQ60701.94380.axf

JavaScript Object Notation format (JSON) in row-major order
http://www.bom.gov.au/fwo/IDQ60701/IDQ60701.94380.json